Time;durP1;ratioP1;P1;durP2;ratioP2;P2;SDS_P1;SDS_P2;PMS_P1;PMS_P2;Temp;Humidity;BMP_temperature;BMP_pressure;BME280_temperature;BME280_humidity;BME280_pressure;Samples;Min_cycle;Max_cycle;Signal;HPM_P1;HPM_P2
2024/03/04 00:00:37;;;;;;;29.35;12.32;;;;;;;;;;5034615;28;20038;-64
2024/03/04 00:03:03;;;;;;;28.77;11.60;;;;;;;;;;5034335;28;20487;-62
2024/03/04 00:05:29;;;;;;;25.42;12.07;;;;;;;;;;5016389;28;20176;-63
2024/03/04 00:07:56;;;;;;;28.50;13.10;;;;;;;;;;5032608;28;20037;-62
2024/03/04 00:10:22;;;;;;;28.13;12.30;;;;;;;;;;5033845;28;20411;-62
2024/03/04 00:12:47;;;;;;;22.90;12.07;;;;;;;;;;5016340;28;20049;-64
2024/03/04 00:15:13;;;;;;;27.35;11.70;;;;;;;;;;5034566;28;20036;-62
2024/03/04 00:17:40;;;;;;;23.88;12.43;;;;;;;;;;5033944;28;20033;-62
2024/03/04 00:20:09;;;;;;;25.00;11.57;;;;;;;;;;5034363;28;20041;-63
2024/03/04 00:22:35;;;;;;;22.00;12.05;;;;;;;;;;5034114;28;20038;-61
2024/03/04 00:25:00;;;;;;;23.80;12.10;;;;;;;;;;5034355;28;20040;-62
2024/03/04 00:27:27;;;;;;;26.48;12.10;;;;;;;;;;5032584;28;20041;-64
2024/03/04 00:29:52;;;;;;;26.88;11.88;;;;;;;;;;5033981;28;20195;-62
2024/03/04 00:32:18;;;;;;;20.67;10.63;;;;;;;;;;5033752;28;20049;-62
2024/03/04 00:34:43;;;;;;;25.52;11.05;;;;;;;;;;5034163;28;20037;-63
2024/03/04 00:37:10;;;;;;;23.80;10.95;;;;;;;;;;5033781;28;20049;-62
2024/03/04 00:39:41;;;;;;;22.38;10.88;;;;;;;;;;5033994;28;20127;-62
2024/03/04 00:42:10;;;;;;;27.00;11.43;;;;;;;;;;5033471;28;20045;-62
2024/03/04 00:44:35;;;;;;;22.00;9.73;;;;;;;;;;5032554;28;20041;-61
2024/03/04 00:47:01;;;;;;;19.98;10.07;;;;;;;;;;5032524;28;20403;-63
2024/03/04 00:49:27;;;;;;;21.25;11.60;;;;;;;;;;5033304;28;20056;-63
2024/03/04 00:51:52;;;;;;;24.17;11.00;;;;;;;;;;5033332;28;20530;-64
2024/03/04 00:54:18;;;;;;;22.52;11.10;;;;;;;;;;5032748;28;20049;-61
2024/03/04 00:56:44;;;;;;;25.75;11.38;;;;;;;;;;5032971;28;20046;-63
2024/03/04 00:59:09;;;;;;;23.42;11.20;;;;;;;;;;5033355;28;20043;-62
2024/03/04 01:01:35;;;;;;;26.83;12.27;;;;;;;;;;5033490;28;20033;-62
2024/03/04 01:04:01;;;;;;;20.25;11.52;;;;;;;;;;5031979;28;20045;-61
2024/03/04 01:06:27;;;;;;;26.00;11.88;;;;;;;;;;5033268;28;20506;-64
2024/03/04 01:08:53;;;;;;;26.48;12.07;;;;;;;;;;5032878;28;20421;-63
2024/03/04 01:11:19;;;;;;;27.02;12.43;;;;;;;;;;5033130;28;20057;-62
2024/03/04 01:13:45;;;;;;;23.15;10.93;;;;;;;;;;5033048;28;20406;-63
2024/03/04 01:16:10;;;;;;;22.90;11.90;;;;;;;;;;5033136;28;20033;-63
2024/03/04 01:18:36;;;;;;;21.63;12.07;;;;;;;;;;5032962;28;20491;-61
2024/03/04 01:21:03;;;;;;;26.80;14.60;;;;;;;;;;5031667;28;20045;-63
2024/03/04 01:23:29;;;;;;;24.85;13.05;;;;;;;;;;5032768;28;20045;-62
2024/03/04 01:25:54;;;;;;;29.05;14.25;;;;;;;;;;5032794;28;20108;-63
2024/03/04 01:28:22;;;;;;;24.05;13.23;;;;;;;;;;5032793;28;20068;-62
2024/03/04 01:30:49;;;;;;;29.70;13.95;;;;;;;;;;5032429;28;20404;-62
2024/03/04 01:33:15;;;;;;;26.38;13.15;;;;;;;;;;5015062;28;20075;-61
2024/03/04 01:35:41;;;;;;;25.25;11.77;;;;;;;;;;5032592;28;20456;-63
2024/03/04 01:38:06;;;;;;;26.70;12.00;;;;;;;;;;5032561;28;20128;-62
2024/03/04 01:40:32;;;;;;;28.17;13.27;;;;;;;;;;5032729;28;20085;-63
2024/03/04 01:42:58;;;;;;;24.98;12.82;;;;;;;;;;5032630;28;20044;-61
2024/03/04 01:45:27;;;;;;;28.02;12.82;;;;;;;;;;5032851;28;20087;-63
2024/03/04 01:48:02;;;;;;;26.17;12.20;;;;;;;;;;5032474;28;20479;-62
2024/03/04 01:50:31;;;;;;;23.80;11.77;;;;;;;;;;5030991;28;20128;-62
2024/03/04 01:52:58;;;;;;;24.65;12.65;;;;;;;;;;5031175;28;20030;-63
2024/03/04 01:55:24;;;;;;;22.42;11.82;;;;;;;;;;5032786;28;20033;-63
2024/03/04 01:57:52;;;;;;;23.70;11.65;;;;;;;;;;5032594;28;20030;-61
2024/03/04 02:00:19;;;;;;;24.13;12.23;;;;;;;;;;5031275;28;20033;-63
2024/03/04 02:02:44;;;;;;;25.05;12.43;;;;;;;;;;5032168;28;20065;-63
2024/03/04 02:05:11;;;;;;;31.33;13.32;;;;;;;;;;5032458;28;20072;-63
2024/03/04 02:07:38;;;;;;;27.10;12.27;;;;;;;;;;5031728;28;20092;-63
2024/03/04 02:10:07;;;;;;;26.42;12.35;;;;;;;;;;5030504;28;20042;-63
2024/03/04 02:12:36;;;;;;;29.25;13.10;;;;;;;;;;5031760;28;20148;-63
2024/03/04 02:15:02;;;;;;;31.73;13.25;;;;;;;;;;5032259;28;20025;-63
2024/03/04 02:17:31;;;;;;;25.50;12.80;;;;;;;;;;5030937;28;20057;-63
2024/03/04 02:20:03;;;;;;;32.22;13.77;;;;;;;;;;5030711;28;20059;-62
2024/03/04 02:22:29;;;;;;;26.73;12.43;;;;;;;;;;5031913;28;20036;-63
2024/03/04 02:24:54;;;;;;;22.50;13.00;;;;;;;;;;5032125;28;20041;-62
2024/03/04 02:27:23;;;;;;;28.83;14.45;;;;;;;;;;5031606;28;20163;-62
2024/03/04 02:29:48;;;;;;;27.80;14.32;;;;;;;;;;5031784;28;20033;-62
2024/03/04 02:32:15;;;;;;;32.35;15.23;;;;;;;;;;5031457;28;20052;-62
2024/03/04 02:34:41;;;;;;;38.97;17.02;;;;;;;;;;5032039;28;20040;-63
2024/03/04 02:37:07;;;;;;;33.70;14.82;;;;;;;;;;5031415;28;20033;-64
2024/03/04 02:39:33;;;;;;;29.05;15.13;;;;;;;;;;5030344;28;20056;-62
2024/03/04 02:41:59;;;;;;;31.23;14.27;;;;;;;;;;5030472;28;20045;-62
2024/03/04 02:44:24;;;;;;;26.90;14.25;;;;;;;;;;5031664;28;20038;-63
2024/03/04 02:46:51;;;;;;;35.28;14.88;;;;;;;;;;5031629;28;20044;-64
2024/03/04 02:49:17;;;;;;;28.95;15.32;;;;;;;;;;5031655;28;20045;-62
2024/03/04 02:51:43;;;;;;;31.13;15.35;;;;;;;;;;5030322;28;20052;-63
2024/03/04 02:54:08;;;;;;;32.28;14.57;;;;;;;;;;5031606;28;20394;-62
2024/03/04 02:56:34;;;;;;;27.02;14.45;;;;;;;;;;5031511;28;20038;-63
2024/03/04 02:59:00;;;;;;;24.55;13.27;;;;;;;;;;5031478;28;20491;-64
2024/03/04 03:01:28;;;;;;;31.88;14.60;;;;;;;;;;5031423;28;20491;-63
2024/03/04 03:03:54;;;;;;;29.15;12.85;;;;;;;;;;5030035;28;20124;-62
2024/03/04 03:06:20;;;;;;;23.38;13.02;;;;;;;;;;5031185;28;20116;-61
2024/03/04 03:08:46;;;;;;;26.70;13.30;;;;;;;;;;5031307;28;20098;-61
2024/03/04 03:11:11;;;;;;;36.65;15.00;;;;;;;;;;5030045;28;20050;-64
2024/03/04 03:13:37;;;;;;;24.25;13.32;;;;;;;;;;5031072;28;20048;-62
2024/03/04 03:16:04;;;;;;;23.92;13.50;;;;;;;;;;5030068;28;20048;-63
2024/03/04 03:18:33;;;;;;;27.05;13.45;;;;;;;;;;5031048;28;20048;-63
2024/03/04 03:20:59;;;;;;;26.67;13.50;;;;;;;;;;5034716;28;20038;-61
2024/03/04 03:23:24;;;;;;;25.17;13.88;;;;;;;;;;5033719;28;20040;-62
2024/03/04 03:25:50;;;;;;;25.20;13.80;;;;;;;;;;5035091;28;20231;-63
2024/03/04 03:28:15;;;;;;;24.98;12.32;;;;;;;;;;5035014;28;20049;-61
2024/03/04 03:30:42;;;;;;;28.33;13.98;;;;;;;;;;5034724;28;20061;-62
2024/03/04 03:33:08;;;;;;;27.02;13.43;;;;;;;;;;5034940;28;20037;-62
2024/03/04 03:35:34;;;;;;;27.13;14.45;;;;;;;;;;5035084;28;20048;-63
2024/03/04 03:37:59;;;;;;;26.85;12.98;;;;;;;;;;5033267;28;20029;-64
2024/03/04 03:40:25;;;;;;;22.95;12.73;;;;;;;;;;5034996;28;20045;-61
2024/03/04 03:42:50;;;;;;;25.73;12.30;;;;;;;;;;5034712;28;20033;-62
2024/03/04 03:45:16;;;;;;;33.35;12.30;;;;;;;;;;5034999;28;20041;-62
2024/03/04 03:47:41;;;;;;;19.88;11.68;;;;;;;;;;5034664;28;20120;-62
2024/03/04 03:50:07;;;;;;;21.95;11.95;;;;;;;;;;5033480;28;20490;-62
2024/03/04 03:52:34;;;;;;;23.05;11.07;;;;;;;;;;5033087;28;20465;-62
2024/03/04 03:55:00;;;;;;;23.02;11.57;;;;;;;;;;5033456;28;20033;-61
2024/03/04 03:57:26;;;;;;;23.80;10.77;;;;;;;;;;5033264;28;20037;-62
2024/03/04 03:59:51;;;;;;;24.33;11.65;;;;;;;;;;5034730;28;20482;-61
2024/03/04 04:02:17;;;;;;;27.98;12.20;;;;;;;;;;5033202;28;20038;-62
2024/03/04 04:04:42;;;;;;;24.38;10.82;;;;;;;;;;5034429;28;20458;-63
2024/03/04 04:07:08;;;;;;;25.17;11.75;;;;;;;;;;5033056;28;20037;-63
2024/03/04 04:09:34;;;;;;;24.08;11.93;;;;;;;;;;5031714;28;20037;-61
2024/03/04 04:11:59;;;;;;;26.80;12.35;;;;;;;;;;5034189;28;20045;-63
2024/03/04 04:14:25;;;;;;;22.38;12.05;;;;;;;;;;5033456;28;20030;-62
2024/03/04 04:16:51;;;;;;;26.67;11.80;;;;;;;;;;5032366;28;20033;-62
2024/03/04 04:19:17;;;;;;;23.00;11.57;;;;;;;;;;5032052;28;20025;-61
2024/03/04 04:21:43;;;;;;;24.48;11.77;;;;;;;;;;5033890;28;20533;-63
2024/03/04 04:24:10;;;;;;;24.63;11.70;;;;;;;;;;5033751;28;20041;-62
2024/03/04 04:26:40;;;;;;;25.23;12.95;;;;;;;;;;5033848;28;20037;-62
2024/03/04 04:29:06;;;;;;;30.40;12.70;;;;;;;;;;5048539;28;20040;-62
2024/03/04 04:31:32;;;;;;;24.02;12.88;;;;;;;;;;5031208;28;20423;-62
2024/03/04 04:33:57;;;;;;;28.23;15.90;;;;;;;;;;5065393;28;20069;-63
2024/03/04 04:36:23;;;;;;;40.33;20.20;;;;;;;;;;5033620;28;20065;-63
2024/03/04 04:38:49;;;;;;;68.25;34.38;;;;;;;;;;5065476;28;20045;-62
2024/03/04 04:41:14;;;;;;;105.47;57.97;;;;;;;;;;5033089;28;20038;-64
2024/03/04 04:43:40;;;;;;;99.45;58.92;;;;;;;;;;5033628;28;20041;-62
2024/03/04 04:46:05;;;;;;;71.85;41.03;;;;;;;;;;5033404;28;20041;-62
2024/03/04 04:48:32;;;;;;;58.72;33.60;;;;;;;;;;5033370;28;20037;-61
2024/03/04 04:50:57;;;;;;;60.20;30.05;;;;;;;;;;5032029;28;20041;-63
2024/03/04 04:53:24;;;;;;;50.40;26.65;;;;;;;;;;5033318;28;20128;-61
2024/03/04 04:55:50;;;;;;;49.72;24.90;;;;;;;;;;5031436;28;20128;-61
2024/03/04 04:58:19;;;;;;;63.83;29.17;;;;;;;;;;4998891;28;20099;-62
2024/03/04 05:00:45;;;;;;;61.38;29.92;;;;;;;;;;5015091;28;20052;-60
2024/03/04 05:03:11;;;;;;;82.50;36.83;;;;;;;;;;5033090;28;20033;-62
2024/03/04 05:05:36;;;;;;;73.85;33.30;;;;;;;;;;5032669;28;20167;-64
2024/03/04 05:08:02;;;;;;;84.40;35.33;;;;;;;;;;5032910;28;20045;-60
2024/03/04 05:10:27;;;;;;;82.10;36.40;;;;;;;;;;5032628;28;20044;-63
2024/03/04 05:12:53;;;;;;;75.03;32.92;;;;;;;;;;5031613;28;20049;-63
2024/03/04 05:15:19;;;;;;;92.75;40.53;;;;;;;;;;5031412;28;20045;-61
2024/03/04 05:17:46;;;;;;;72.70;34.47;;;;;;;;;;5030938;28;20065;-62
2024/03/04 05:20:12;;;;;;;63.88;29.67;;;;;;;;;;5031954;28;20092;-61
2024/03/04 05:22:38;;;;;;;66.03;29.17;;;;;;;;;;5032458;28;20045;-61
2024/03/04 05:25:04;;;;;;;63.33;30.00;;;;;;;;;;5032668;28;20038;-60
2024/03/04 05:27:30;;;;;;;43.63;21.27;;;;;;;;;;5031898;28;20514;-60
2024/03/04 05:29:56;;;;;;;38.85;20.63;;;;;;;;;;5030132;28;20507;-60
2024/03/04 05:32:22;;;;;;;34.70;18.80;;;;;;;;;;5031052;28;20080;-60
2024/03/04 05:34:47;;;;;;;40.03;22.02;;;;;;;;;;5030974;28;20037;-61
2024/03/04 05:37:13;;;;;;;38.70;20.85;;;;;;;;;;5032171;28;20029;-61
2024/03/04 05:39:38;;;;;;;42.72;20.38;;;;;;;;;;5032251;28;20026;-63
2024/03/04 05:42:04;;;;;;;36.20;20.05;;;;;;;;;;5031598;28;20187;-62
2024/03/04 05:44:30;;;;;;;51.72;25.83;;;;;;;;;;5031503;28;20128;-61
2024/03/04 05:46:55;;;;;;;45.85;25.83;;;;;;;;;;5031842;28;20037;-62
2024/03/04 05:49:21;;;;;;;43.88;24.13;;;;;;;;;;5031951;28;20042;-62
2024/03/04 05:51:47;;;;;;;46.67;24.48;;;;;;;;;;5031961;28;20049;-65
2024/03/04 05:54:12;;;;;;;44.58;22.65;;;;;;;;;;5031977;28;20037;-62
2024/03/04 05:56:42;;;;;;;40.47;22.20;;;;;;;;;;5031380;28;20037;-65
2024/03/04 05:59:09;;;;;;;41.38;19.95;;;;;;;;;;5030073;28;20036;-63
2024/03/04 06:01:35;;;;;;;45.17;23.02;;;;;;;;;;5031892;28;20038;-62
2024/03/04 06:04:01;;;;;;;48.13;23.67;;;;;;;;;;5031544;28;20048;-62
2024/03/04 06:06:27;;;;;;;45.50;24.10;;;;;;;;;;5031848;28;20037;-64
2024/03/04 06:08:52;;;;;;;40.15;21.95;;;;;;;;;;5031538;28;20060;-61
2024/03/04 06:11:18;;;;;;;43.30;20.90;;;;;;;;;;5030351;28;20404;-63
2024/03/04 06:13:44;;;;;;;42.92;20.75;;;;;;;;;;5030353;28;20056;-63
2024/03/04 06:16:10;;;;;;;27.77;15.27;;;;;;;;;;5030411;28;20047;-62
2024/03/04 06:18:35;;;;;;;20.00;11.30;;;;;;;;;;5063199;28;20123;-65
2024/03/04 06:21:01;;;;;;;18.50;10.43;;;;;;;;;;5031760;28;20080;-63
2024/03/04 06:23:26;;;;;;;17.92;9.52;;;;;;;;;;5048314;28;20160;-62
2024/03/04 06:25:52;;;;;;;18.88;9.05;;;;;;;;;;5010900;28;20048;-63
2024/03/04 06:28:18;;;;;;;14.73;8.43;;;;;;;;;;5025107;28;20037;-61
2024/03/04 06:30:43;;;;;;;16.23;8.68;;;;;;;;;;5031309;28;20107;-61
2024/03/04 06:33:09;;;;;;;16.75;8.57;;;;;;;;;;5031114;28;20029;-60
2024/03/04 06:35:35;;;;;;;18.75;8.70;;;;;;;;;;5013969;28;20641;-63
2024/03/04 06:38:01;;;;;;;15.93;8.70;;;;;;;;;;5031299;28;20037;-59
2024/03/04 06:40:26;;;;;;;16.27;9.48;;;;;;;;;;5031679;28;20064;-63
2024/03/04 06:42:52;;;;;;;15.10;8.15;;;;;;;;;;5030702;28;20120;-62
2024/03/04 06:45:17;;;;;;;16.20;8.85;;;;;;;;;;5031358;28;20100;-61
2024/03/04 06:47:43;;;;;;;16.80;8.45;;;;;;;;;;5030907;28;20044;-60
2024/03/04 06:50:09;;;;;;;21.00;7.82;;;;;;;;;;5031077;28;20521;-60
2024/03/04 06:52:34;;;;;;;18.92;8.73;;;;;;;;;;5029387;28;20045;-59
2024/03/04 06:55:00;;;;;;;21.10;8.65;;;;;;;;;;5012988;28;20030;-60
2024/03/04 06:57:26;;;;;;;17.38;8.07;;;;;;;;;;5030510;28;20046;-61
2024/03/04 06:59:52;;;;;;;13.25;7.95;;;;;;;;;;5029208;28;20042;-63
2024/03/04 07:02:18;;;;;;;14.25;8.05;;;;;;;;;;5030697;28;20084;-60
2024/03/04 07:04:44;;;;;;;19.38;7.90;;;;;;;;;;5031302;28;20395;-60
2024/03/04 07:07:10;;;;;;;13.23;7.90;;;;;;;;;;5029709;28;20092;-61
2024/03/04 07:09:35;;;;;;;13.35;7.32;;;;;;;;;;5031202;28;20071;-61
2024/03/04 07:12:01;;;;;;;14.73;7.13;;;;;;;;;;5029614;28;20045;-62
2024/03/04 07:14:26;;;;;;;13.15;7.30;;;;;;;;;;5030113;28;20406;-60
2024/03/04 07:16:52;;;;;;;14.45;7.20;;;;;;;;;;5029517;28;20415;-61
2024/03/04 07:19:17;;;;;;;12.38;6.93;;;;;;;;;;5031166;28;20033;-61
2024/03/04 07:21:43;;;;;;;20.00;7.85;;;;;;;;;;5030916;28;20064;-61
2024/03/04 07:24:08;;;;;;;14.45;7.18;;;;;;;;;;5031215;28;20113;-61
2024/03/04 07:26:34;;;;;;;14.50;7.15;;;;;;;;;;5031196;28;20030;-61
2024/03/04 07:29:00;;;;;;;12.60;7.50;;;;;;;;;;5030759;28;20038;-62
2024/03/04 07:31:26;;;;;;;12.70;7.40;;;;;;;;;;5029315;28;20071;-62
2024/03/04 07:33:52;;;;;;;15.20;7.75;;;;;;;;;;5029305;28;20398;-61
2024/03/04 07:36:17;;;;;;;14.43;7.63;;;;;;;;;;5029277;28;20044;-62
2024/03/04 07:38:43;;;;;;;16.40;7.90;;;;;;;;;;5029484;28;20037;-60
2024/03/04 07:41:09;;;;;;;13.93;7.80;;;;;;;;;;5030466;28;20034;-64
2024/03/04 07:43:35;;;;;;;16.25;7.72;;;;;;;;;;5030728;28;20080;-62
2024/03/04 07:46:01;;;;;;;13.32;7.65;;;;;;;;;;5030819;28;20212;-62
2024/03/04 07:48:26;;;;;;;16.63;8.15;;;;;;;;;;5030431;28;20117;-62
2024/03/04 07:50:52;;;;;;;16.05;8.32;;;;;;;;;;5030637;28;20048;-63
2024/03/04 07:53:18;;;;;;;15.90;7.80;;;;;;;;;;5030597;28;20034;-61
2024/03/04 07:55:43;;;;;;;15.52;8.57;;;;;;;;;;5030732;28;20388;-62
2024/03/04 07:58:09;;;;;;;15.77;7.55;;;;;;;;;;5030523;28;20419;-61
2024/03/04 08:00:35;;;;;;;11.55;7.68;;;;;;;;;;5030422;28;20143;-62
2024/03/04 08:03:00;;;;;;;13.15;7.18;;;;;;;;;;5030005;28;20044;-62
2024/03/04 08:05:26;;;;;;;20.67;7.93;;;;;;;;;;5030666;28;20045;-62
2024/03/04 08:07:51;;;;;;;14.68;8.45;;;;;;;;;;5033245;28;20470;-62
2024/03/04 08:10:17;;;;;;;17.63;8.90;;;;;;;;;;5033464;28;20029;-61
2024/03/04 08:12:43;;;;;;;14.35;8.43;;;;;;;;;;5033551;28;20434;-63
2024/03/04 08:15:09;;;;;;;14.27;9.20;;;;;;;;;;5031215;28;20143;-62
2024/03/04 08:17:35;;;;;;;19.63;12.15;;;;;;;;;;5033043;28;20048;-62
2024/03/04 08:20:01;;;;;;;20.38;10.63;;;;;;;;;;5034187;28;20033;-63
2024/03/04 08:22:27;;;;;;;16.52;9.82;;;;;;;;;;5032549;28;20041;-63
2024/03/04 08:24:53;;;;;;;15.68;9.18;;;;;;;;;;5033694;28;20036;-61
2024/03/04 08:27:19;;;;;;;15.95;8.55;;;;;;;;;;5033497;28;20137;-61
2024/03/04 08:29:46;;;;;;;13.40;8.05;;;;;;;;;;5034071;28;20041;-60
2024/03/04 08:32:12;;;;;;;13.68;6.88;;;;;;;;;;5041014;28;20093;-60
2024/03/04 08:34:37;;;;;;;12.07;6.90;;;;;;;;;;5034069;28;20557;-61
2024/03/04 08:37:03;;;;;;;13.65;8.27;;;;;;;;;;5033539;28;20499;-62
2024/03/04 08:39:29;;;;;;;16.13;10.00;;;;;;;;;;5033775;28;20090;-60
2024/03/04 08:41:55;;;;;;;13.30;8.60;;;;;;;;;;5033107;28;20506;-60
2024/03/04 08:44:20;;;;;;;15.25;7.75;;;;;;;;;;5033632;28;20040;-62
2024/03/04 08:46:46;;;;;;;9.57;5.97;;;;;;;;;;5033487;28;20488;-63
2024/03/04 08:49:13;;;;;;;12.55;7.15;;;;;;;;;;5015708;28;20029;-61
2024/03/04 08:51:39;;;;;;;14.77;7.10;;;;;;;;;;5033230;28;20046;-61
2024/03/04 08:54:04;;;;;;;13.15;6.82;;;;;;;;;;5033316;28;20486;-61
2024/03/04 08:56:30;;;;;;;15.30;7.10;;;;;;;;;;5032927;28;20044;-62
2024/03/04 08:58:58;;;;;;;14.48;7.53;;;;;;;;;;5033454;28;20464;-61
2024/03/04 09:01:24;;;;;;;16.00;7.53;;;;;;;;;;5031076;28;20052;-61
2024/03/04 09:03:50;;;;;;;16.60;8.43;;;;;;;;;;5031502;28;20029;-62
2024/03/04 09:06:17;;;;;;;16.85;8.63;;;;;;;;;;5032827;28;20041;-61
2024/03/04 09:08:42;;;;;;;14.45;8.48;;;;;;;;;;5032870;28;20037;-62
2024/03/04 09:11:09;;;;;;;13.02;7.15;;;;;;;;;;5011843;28;20112;-62
2024/03/04 09:13:44;;;;;;;15.68;8.20;;;;;;;;;;5028415;28;20033;-63
2024/03/04 09:16:10;;;;;;;9.63;6.60;;;;;;;;;;5031670;28;20037;-61
2024/03/04 09:18:39;;;;;;;13.52;6.60;;;;;;;;;;5032565;28;20029;-60
2024/03/04 09:21:06;;;;;;;12.13;6.30;;;;;;;;;;5031310;28;20227;-61
2024/03/04 09:23:32;;;;;;;13.10;6.53;;;;;;;;;;5032511;28;20055;-59
2024/03/04 09:25:57;;;;;;;14.27;7.03;;;;;;;;;;5031412;28;20494;-62
2024/03/04 09:28:23;;;;;;;14.63;6.78;;;;;;;;;;5032331;28;20116;-60
2024/03/04 09:30:49;;;;;;;11.10;6.30;;;;;;;;;;5032395;28;20398;-62
2024/03/04 09:33:16;;;;;;;9.35;6.60;;;;;;;;;;5032251;28;20068;-60
2024/03/04 09:35:42;;;;;;;12.85;6.90;;;;;;;;;;5032568;28;20091;-59
2024/03/04 09:38:07;;;;;;;10.63;6.38;;;;;;;;;;5030980;28;20439;-60
2024/03/04 09:40:36;;;;;;;11.20;6.05;;;;;;;;;;5032428;28;20038;-62
2024/03/04 09:43:02;;;;;;;11.68;5.93;;;;;;;;;;5030694;28;20411;-60
2024/03/04 09:45:27;;;;;;;8.35;5.00;;;;;;;;;;5030681;28;20052;-60
2024/03/04 09:47:57;;;;;;;8.25;5.28;;;;;;;;;;5032216;28;20423;-60
2024/03/04 09:50:23;;;;;;;14.70;5.03;;;;;;;;;;5032456;28;20025;-61
2024/03/04 09:52:49;;;;;;;11.30;5.30;;;;;;;;;;5031298;28;20057;-62
2024/03/04 09:55:15;;;;;;;10.98;5.35;;;;;;;;;;5030790;28;20036;-61
2024/03/04 09:57:41;;;;;;;14.63;6.03;;;;;;;;;;5032229;28;20041;-60
2024/03/04 10:00:13;;;;;;;12.25;6.32;;;;;;;;;;5030687;28;20044;-62
2024/03/04 10:02:45;;;;;;;9.80;5.47;;;;;;;;;;5031896;28;20495;-60
2024/03/04 10:05:12;;;;;;;10.27;5.55;;;;;;;;;;5032100;28;20124;-62
2024/03/04 10:07:37;;;;;;;7.65;5.13;;;;;;;;;;5030718;28;20036;-59
2024/03/04 10:10:08;;;;;;;7.70;4.80;;;;;;;;;;5030111;28;20041;-63
2024/03/04 10:12:34;;;;;;;10.43;5.00;;;;;;;;;;5013960;28;20048;-62
2024/03/04 10:15:03;;;;;;;7.80;4.70;;;;;;;;;;5032178;28;20037;-61
2024/03/04 10:17:31;;;;;;;7.20;5.28;;;;;;;;;;5029820;28;20076;-61
2024/03/04 10:20:00;;;;;;;8.07;5.15;;;;;;;;;;5031846;28;20064;-62
2024/03/04 10:22:35;;;;;;;8.43;4.78;;;;;;;;;;5022913;28;20112;-61
2024/03/04 10:25:04;;;;;;;14.07;5.10;;;;;;;;;;5021572;28;20033;-61
2024/03/04 10:27:30;;;;;;;6.78;4.25;;;;;;;;;;5030696;28;20124;-62
2024/03/04 10:30:07;;;;;;;6.45;4.90;;;;;;;;;;5030517;28;20029;-62
2024/03/04 10:32:33;;;;;;;7.15;4.50;;;;;;;;;;5028527;28;20140;-61
2024/03/04 10:35:02;;;;;;;9.85;4.90;;;;;;;;;;5031511;28;20104;-63
2024/03/04 10:37:29;;;;;;;;;;;;;;;;;;5057327;28;20061;-61
2024/03/04 10:39:54;;;;;;;9.82;4.85;;;;;;;;;;5046601;28;19920;-63
2024/03/04 10:42:20;;;;;;;12.93;5.35;;;;;;;;;;5031243;28;20030;-62
2024/03/04 10:44:48;;;;;;;14.23;4.78;;;;;;;;;;5031688;28;20048;-61
2024/03/04 10:47:14;;;;;;;7.75;4.75;;;;;;;;;;5029020;28;20037;-60
2024/03/04 10:49:40;;;;;;;10.45;4.75;;;;;;;;;;5030550;28;20162;-62
2024/03/04 10:52:06;;;;;;;12.77;5.20;;;;;;;;;;5028344;28;20119;-60
2024/03/04 10:54:31;;;;;;;9.48;4.72;;;;;;;;;;5029009;28;20027;-60
2024/03/04 10:57:04;;;;;;;9.02;4.82;;;;;;;;;;5029979;28;20037;-62
2024/03/04 10:59:37;;;;;;;7.95;5.20;;;;;;;;;;5030484;28;20037;-61
2024/03/04 11:02:10;;;;;;;8.20;5.22;;;;;;;;;;5030332;28;20036;-60
2024/03/04 11:04:37;;;;;;;9.38;5.50;;;;;;;;;;5031368;28;20518;-62
2024/03/04 11:07:05;;;;;;;7.43;4.53;;;;;;;;;;5030707;28;20042;-63
2024/03/04 11:09:31;;;;;;;8.82;4.90;;;;;;;;;;5029710;28;20061;-63
2024/03/04 11:11:58;;;;;;;10.77;5.15;;;;;;;;;;5030553;28;20526;-62
2024/03/04 11:14:33;;;;;;;9.02;4.88;;;;;;;;;;5029767;28;20040;-63
2024/03/04 11:17:04;;;;;;;11.15;5.20;;;;;;;;;;5030585;28;20519;-60
2024/03/04 11:19:50;;;;;;;10.43;5.50;;;;;;;;;;5063097;28;20045;-61
2024/03/04 11:22:16;;;;;;;10.50;5.47;;;;;;;;;;5030169;28;20049;-61
2024/03/04 11:24:42;;;;;;;9.27;5.30;;;;;;;;;;5031287;28;20033;-61
2024/03/04 11:27:09;;;;;;;11.20;5.90;;;;;;;;;;5029129;28;20041;-61
2024/03/04 11:29:36;;;;;;;9.95;5.43;;;;;;;;;;5031247;28;20425;-61
2024/03/04 11:32:04;;;;;;;9.48;5.55;;;;;;;;;;5030587;28;20070;-62
2024/03/04 11:34:30;;;;;;;9.18;5.90;;;;;;;;;;5031121;28;20033;-61
2024/03/04 11:36:59;;;;;;;9.80;5.60;;;;;;;;;;5029203;28;20423;-62
2024/03/04 11:39:25;;;;;;;9.38;6.10;;;;;;;;;;5030903;28;20037;-60
2024/03/04 11:41:55;;;;;;;12.02;5.70;;;;;;;;;;5033794;28;20061;-63
2024/03/04 11:44:26;;;;;;;11.10;5.50;;;;;;;;;;5034887;28;20123;-60
2024/03/04 11:46:52;;;;;;;8.90;5.40;;;;;;;;;;5033056;28;20517;-62
2024/03/04 11:49:22;;;;;;;9.68;5.78;;;;;;;;;;5033349;28;20118;-62
2024/03/04 11:52:01;;;;;;;10.38;5.78;;;;;;;;;;5034350;28;20049;-62
2024/03/04 11:54:33;;;;;;;12.50;5.97;;;;;;;;;;5034571;28;20041;-62
2024/03/04 11:56:59;;;;;;;10.05;6.32;;;;;;;;;;5034258;28;20046;-63
2024/03/04 11:59:25;;;;;;;10.23;5.53;;;;;;;;;;5034489;28;20148;-62
2024/03/04 12:01:51;;;;;;;11.93;6.40;;;;;;;;;;5034120;28;20045;-63
2024/03/04 12:04:18;;;;;;;10.50;5.68;;;;;;;;;;5032856;28;20522;-59
2024/03/04 12:06:44;;;;;;;8.77;5.65;;;;;;;;;;5034153;28;20037;-63
2024/03/04 12:09:09;;;;;;;12.15;6.72;;;;;;;;;;5034107;28;20030;-62
2024/03/04 12:11:35;;;;;;;12.55;6.55;;;;;;;;;;5033693;28;20049;-61
2024/03/04 12:14:04;;;;;;;8.80;5.50;;;;;;;;;;5032549;28;20045;-63
2024/03/04 12:16:30;;;;;;;12.48;6.35;;;;;;;;;;5033938;28;20041;-61
2024/03/04 12:18:56;;;;;;;9.40;5.75;;;;;;;;;;5033707;28;20444;-62
2024/03/04 12:21:22;;;;;;;10.57;6.15;;;;;;;;;;5031990;28;20084;-63
2024/03/04 12:23:47;;;;;;;13.25;6.40;;;;;;;;;;5030631;28;20088;-61
2024/03/04 12:26:13;;;;;;;11.45;6.35;;;;;;;;;;5031659;28;20029;-64
2024/03/04 12:28:39;;;;;;;12.52;6.38;;;;;;;;;;5030342;28;20112;-63
2024/03/04 12:31:10;;;;;;;13.85;6.30;;;;;;;;;;5031053;28;20037;-62
2024/03/04 12:33:35;;;;;;;;;;;;;;;;;;5030865;28;20041;-60
2024/03/04 12:36:01;;;;;;;10.60;6.40;;;;;;;;;;5033239;28;19917;-60
2024/03/04 12:38:27;;;;;;;10.45;6.40;;;;;;;;;;5032196;28;20171;-61
2024/03/04 12:40:52;;;;;;;13.57;6.18;;;;;;;;;;5032008;28;20151;-64
2024/03/04 12:43:18;;;;;;;11.00;6.03;;;;;;;;;;5031188;28;20036;-60
2024/03/04 12:45:44;;;;;;;13.32;6.63;;;;;;;;;;5030167;28;20026;-62
2024/03/04 12:48:10;;;;;;;12.13;7.00;;;;;;;;;;5027365;28;20030;-62
2024/03/04 12:50:36;;;;;;;12.75;6.32;;;;;;;;;;5029516;28;20465;-61
2024/03/04 12:53:03;;;;;;;10.23;6.80;;;;;;;;;;5030152;28;20439;-62
2024/03/04 12:55:29;;;;;;;12.43;7.22;;;;;;;;;;5030249;28;20033;-62
2024/03/04 12:57:58;;;;;;;13.45;7.75;;;;;;;;;;5031816;28;20048;-60
2024/03/04 13:00:24;;;;;;;12.05;6.82;;;;;;;;;;5031966;28;20561;-62
2024/03/04 13:02:50;;;;;;;11.93;7.18;;;;;;;;;;5015030;28;20042;-61
2024/03/04 13:05:16;;;;;;;11.82;6.50;;;;;;;;;;5032921;28;20041;-62
2024/03/04 13:07:42;;;;;;;14.27;6.63;;;;;;;;;;5031588;28;20099;-62
2024/03/04 13:10:09;;;;;;;14.32;7.32;;;;;;;;;;5031489;28;20104;-63
2024/03/04 13:12:35;;;;;;;12.07;6.47;;;;;;;;;;5032918;28;20519;-63
2024/03/04 13:15:05;;;;;;;11.27;6.80;;;;;;;;;;5032644;28;20107;-63
2024/03/04 13:17:34;;;;;;;11.52;6.47;;;;;;;;;;5031002;28;20434;-63
2024/03/04 13:20:00;;;;;;;14.45;6.70;;;;;;;;;;5032310;28;20040;-64
2024/03/04 13:22:26;;;;;;;12.32;6.60;;;;;;;;;;5032267;28;20211;-63
2024/03/04 13:24:57;;;;;;;11.52;7.18;;;;;;;;;;5032743;28;20160;-63
2024/03/04 13:27:23;;;;;;;12.98;6.88;;;;;;;;;;5032046;28;20037;-61
2024/03/04 13:29:48;;;;;;;12.32;6.72;;;;;;;;;;5031280;28;20044;-63
2024/03/04 13:32:14;;;;;;;14.57;7.22;;;;;;;;;;5031679;28;20069;-63
2024/03/04 13:34:43;;;;;;;13.55;6.90;;;;;;;;;;5032033;28;20040;-62
2024/03/04 13:37:09;;;;;;;13.48;7.30;;;;;;;;;;5010732;28;20124;-62
2024/03/04 13:39:34;;;;;;;12.13;7.40;;;;;;;;;;5017231;28;20125;-60
2024/03/04 13:42:00;;;;;;;12.45;6.47;;;;;;;;;;5031752;28;20083;-61
2024/03/04 13:44:26;;;;;;;14.02;7.22;;;;;;;;;;5031516;28;20566;-60
2024/03/04 13:46:51;;;;;;;14.25;6.65;;;;;;;;;;5030492;28;20037;-64
2024/03/04 13:49:17;;;;;;;12.38;6.93;;;;;;;;;;5031687;28;20041;-63
2024/03/04 13:51:42;;;;;;;12.80;7.18;;;;;;;;;;5031417;28;20045;-63
2024/03/04 13:54:08;;;;;;;13.57;6.40;;;;;;;;;;5031763;28;20044;-63
2024/03/04 13:56:35;;;;;;;19.25;7.13;;;;;;;;;;5031397;28;20091;-60
2024/03/04 13:59:05;;;;;;;11.38;6.85;;;;;;;;;;5031493;28;20072;-63
2024/03/04 14:01:32;;;;;;;14.82;7.35;;;;;;;;;;5030752;28;20029;-63
2024/03/04 14:03:58;;;;;;;13.98;6.47;;;;;;;;;;5029940;28;20057;-62
2024/03/04 14:06:24;;;;;;;11.52;7.22;;;;;;;;;;5029680;28;20550;-61
2024/03/04 14:08:49;;;;;;;13.48;6.90;;;;;;;;;;5030233;28;20037;-63
2024/03/04 14:11:15;;;;;;;13.55;7.57;;;;;;;;;;5030036;28;20056;-64
2024/03/04 14:13:41;;;;;;;12.85;7.00;;;;;;;;;;5031248;28;20487;-60
2024/03/04 14:16:08;;;;;;;13.70;7.47;;;;;;;;;;5028359;28;20041;-62
2024/03/04 14:18:35;;;;;;;12.00;7.57;;;;;;;;;;5030465;28;20040;-62
2024/03/04 14:21:01;;;;;;;14.75;6.88;;;;;;;;;;5013534;28;20087;-63